Time;durP1;ratioP1;P1;durP2;ratioP2;P2;SDS_P1;SDS_P2;PMS_P1;PMS_P2;Temp;Humidity;BMP_temperature;BMP_pressure;BME280_temperature;BME280_humidity;BME280_pressure;Samples;Min_cycle;Max_cycle;Signal;HPM_P1;HPM_P2
2021/06/09 00:01:05;;;;;;;0.20;0.20;;;;;;;13.33;67.76;101684.66;5035021;28;20062;-90
2021/06/09 00:03:41;;;;;;;0.10;0.10;;;;;;;13.23;67.55;101680.00;5019532;28;20065;-91
2021/06/09 00:06:25;;;;;;;0.10;0.10;;;;;;;13.22;69.04;101675.63;5042856;28;20049;-90
2021/06/09 00:08:53;;;;;;;0.10;0.10;;;;;;;12.90;67.69;101630.25;5043262;28;20051;-90
2021/06/09 00:11:23;;;;;;;0.20;0.20;;;;;;;13.21;67.77;101682.19;5041884;28;20073;-90
2021/06/09 00:14:27;;;;;;;0.20;0.20;;;;;;;13.18;67.32;101674.53;5037298;28;20057;-90
2021/06/09 00:17:09;;;;;;;0.10;0.10;;;;;;;13.09;67.09;101678.91;5034063;28;20408;-92
2021/06/09 00:19:41;;;;;;;0.20;0.20;;;;;;;13.06;67.57;101676.72;5021573;28;20052;-90
2021/06/09 00:22:14;;;;;;;0.10;0.10;;;;;;;13.06;67.48;101683.03;5029017;28;20053;-91
2021/06/09 00:24:44;;;;;;;0.20;0.20;;;;;;;13.03;67.85;101680.00;5019989;28;20049;-90
2021/06/09 00:27:12;;;;;;;0.20;0.20;;;;;;;12.94;67.42;101671.53;5036867;28;20052;-90
2021/06/09 00:34:08;;;;;;;0.13;0.13;;;;;;;12.80;67.84;101668.50;5020506;28;20045;-89
2021/06/09 00:36:36;;;;;;;0.10;0.10;;;;;;;12.79;67.25;101674.22;5032176;28;20057;-91
2021/06/09 00:39:06;;;;;;;0.10;0.10;;;;;;;12.75;66.99;101684.88;5026092;28;20049;-90
2021/06/09 00:41:35;;;;;;;0.10;0.10;;;;;;;12.79;67.77;101683.25;5048400;28;20049;-90
2021/06/09 00:44:09;;;;;;;0.10;0.10;;;;;;;12.75;67.44;101668.50;5024857;28;20049;-90
2021/06/09 00:47:47;;;;;;;0.10;0.10;;;;;;;12.87;69.05;101671.78;5023990;28;20054;-90
2021/06/09 00:51:06;;;;;;;0.22;0.10;;;;;;;12.86;68.38;101677.53;5031994;28;20049;-90
2021/06/09 00:58:05;;;;;;;0.13;0.13;;;;;;;12.73;68.23;101674.22;5040391;28;20504;-90
2021/06/09 01:00:41;;;;;;;0.10;0.10;;;;;;;12.68;68.26;101666.03;5037981;28;20061;-91
2021/06/09 01:03:42;;;;;;;0.20;0.20;;;;;;;12.74;69.05;101685.97;5023981;28;20442;-90
2021/06/09 01:06:15;;;;;;;0.20;0.20;;;;;;;12.70;69.22;101680.22;5023286;28;20050;-91
2021/06/09 01:09:15;;;;;;;0.10;0.10;;;;;;;12.64;69.47;101675.03;5035529;28;20053;-90
2021/06/09 01:11:52;;;;;;;0.20;0.10;;;;;;;12.57;69.33;101662.44;5034833;28;20066;-90
2021/06/09 01:18:05;;;;;;;0.10;0.10;;;;;;;12.51;68.85;101669.00;5053052;28;20049;-89
2021/06/09 01:21:06;;;;;;;0.20;0.20;;;;;;;12.51;69.33;101666.25;5029073;28;20053;-90
2021/06/09 01:23:41;;;;;;;0.10;0.10;;;;;;;12.46;68.60;101668.97;5025729;28;20517;-90
2021/06/09 01:30:34;;;;;;;0.20;0.20;;;;;;;12.33;68.45;101672.19;5023935;28;20504;-90
2021/06/09 01:41:22;;;;;;;0.10;0.10;;;;;;;12.24;67.06;101666.44;5033582;28;20049;-89
2021/06/09 01:43:52;;;;;;;0.13;0.13;;;;;;;12.24;68.23;101669.16;5032858;28;20054;-90
2021/06/09 01:46:43;;;;;;;0.10;0.10;;;;;;;12.14;68.58;101669.94;5038640;28;20488;-90
2021/06/09 01:49:13;;;;;;;0.17;0.17;;;;;;;12.07;65.93;101677.56;5031168;28;20184;-89
2021/06/09 01:51:41;;;;;;;0.20;0.20;;;;;;;11.60;67.88;101589.19;5038653;28;20049;-90
2021/06/09 01:54:14;;;;;;;0.30;0.20;;;;;;;12.02;68.25;101675.59;5041567;28;20049;-90
2021/06/09 01:56:48;;;;;;;0.10;0.10;;;;;;;12.02;68.94;101683.78;5046121;28;20478;-91
2021/06/09 01:59:19;;;;;;;0.20;0.20;;;;;;;11.96;68.70;101664.91;5043988;28;20508;-90
2021/06/09 02:02:00;;;;;;;0.17;0.17;;;;;;;12.03;68.08;101681.91;5027014;28;20057;-90
2021/06/09 02:08:01;;;;;;;0.10;0.10;;;;;;;12.07;69.19;101677.56;5040748;28;20122;-90
2021/06/09 02:15:01;;;;;;;0.30;0.20;;;;;;;11.97;68.54;101663.84;5019155;28;20065;-89
2021/06/09 02:17:35;;;;;;;0.10;0.10;;;;;;;12.05;70.10;101676.97;5022918;28;20054;-91
2021/06/09 02:20:13;;;;;;;0.13;0.13;;;;;;;11.99;68.54;101656.22;5015480;28;20046;-90
2021/06/09 02:23:00;;;;;;;0.10;0.10;;;;;;;12.02;69.61;101672.06;5023867;28;20053;-90
2021/06/09 02:25:34;;;;;;;0.20;0.20;;;;;;;11.88;69.22;101660.78;5046193;28;20049;-90
2021/06/09 02:28:05;;;;;;;0.10;0.10;;;;;;;11.80;69.41;101650.38;5038521;28;20072;-91
2021/06/09 02:30:46;;;;;;;0.10;0.10;;;;;;;11.85;69.75;101656.66;5033705;28;20395;-90
2021/06/09 02:33:47;;;;;;;0.20;0.20;;;;;;;11.90;69.59;101674.97;5024689;28;20513;-91
2021/06/09 02:36:51;;;;;;;0.30;0.10;;;;;;;11.87;68.90;101670.03;5019814;28;20061;-90
2021/06/09 02:40:15;;;;;;;0.10;0.10;;;;;;;11.81;70.29;101665.66;5037245;28;20071;-90
2021/06/09 02:42:49;;;;;;;0.13;0.13;;;;;;;11.78;70.34;101656.09;5030523;28;20050;-90
2021/06/09 02:45:22;;;;;;;0.20;0.20;;;;;;;11.37;69.00;101599.38;5036861;28;20053;-89
2021/06/09 02:48:04;;;;;;;0.15;0.15;;;;;;;11.88;69.97;101671.69;5051988;28;20056;-90
2021/06/09 02:51:06;;;;;;;0.20;0.20;;;;;;;11.85;69.54;101664.03;5033561;28;20053;-89
2021/06/09 02:53:56;;;;;;;0.10;0.10;;;;;;;11.74;69.94;101655.78;5021533;28;20049;-90
2021/06/09 02:57:19;;;;;;;0.10;0.10;;;;;;;11.82;70.28;101664.53;5029384;28;20060;-90
2021/06/09 03:00:03;;;;;;;0.17;0.13;;;;;;;11.82;69.94;101654.47;5015480;28;20049;-90
2021/06/09 03:02:42;;;;;;;0.10;0.10;;;;;;;11.85;70.90;101670.31;5035700;28;20045;-90
2021/06/09 03:05:25;;;;;;;0.15;0.15;;;;;;;11.64;71.39;101628.47;5045531;28;20048;-90
2021/06/09 03:08:26;;;;;;;0.17;0.17;;;;;;;11.91;71.01;101662.97;5038130;28;20052;-90
2021/06/09 03:15:35;;;;;;;0.30;0.20;;;;;;;11.80;71.25;101647.63;5037540;28;20056;-90
2021/06/09 03:22:59;;;;;;;0.43;0.20;;;;;;;11.91;71.55;101652.88;5051697;28;20407;-89
2021/06/09 03:26:26;;;;;;;0.30;0.10;;;;;;;11.92;70.95;101653.72;5023963;28;20050;-90
2021/06/09 03:29:49;;;;;;;0.10;0.10;;;;;;;12.00;70.85;101655.97;5022719;28;20054;-91
2021/06/09 03:32:29;;;;;;;0.10;0.10;;;;;;;11.95;70.82;101652.38;5041120;28;20507;-90
2021/06/09 03:35:03;;;;;;;0.10;0.10;;;;;;;11.95;71.75;101649.66;5037555;28;21740;-90
2021/06/09 03:37:42;;;;;;;0.10;0.10;;;;;;;11.99;70.92;101659.75;5031315;28;20049;-91
2021/06/09 03:40:24;;;;;;;0.20;0.20;;;;;;;11.97;71.38;101648.28;5030160;28;20033;-91
2021/06/09 03:43:47;;;;;;;0.28;0.20;;;;;;;11.93;70.00;101654.50;5029101;28;20055;-90
2021/06/09 03:46:21;;;;;;;0.20;0.20;;;;;;;12.00;71.23;101655.97;5044162;28;20045;-90
2021/06/09 03:49:02;;;;;;;0.10;0.10;;;;;;;11.97;71.35;101652.94;5023193;28;20058;-90
2021/06/09 03:51:59;;;;;;;0.10;0.10;;;;;;;11.95;69.95;101658.66;5030617;28;20049;-89
2021/06/09 03:54:52;;;;;;;0.20;0.20;;;;;;;11.98;72.06;101658.13;5024662;28;20045;-91
2021/06/09 03:57:22;;;;;;;0.10;0.10;;;;;;;12.06;72.14;101654.06;5033840;28;20057;-89
2021/06/09 03:59:51;;;;;;;0.20;0.20;;;;;;;12.10;72.79;101662.53;5032837;28;20057;-90
2021/06/09 04:02:27;;;;;;;0.10;0.10;;;;;;;12.06;71.74;101643.16;5029328;28;20066;-91
2021/06/09 04:05:03;;;;;;;0.20;0.20;;;;;;;12.17;71.76;101660.41;5013107;28;20046;-89
2021/06/09 04:08:42;;;;;;;0.10;0.10;;;;;;;12.16;72.66;101654.09;5037405;28;20068;-90
2021/06/09 04:15:22;;;;;;;0.10;0.10;;;;;;;12.01;72.33;101624.84;5021035;28;20386;-90
2021/06/09 04:17:51;;;;;;;0.10;0.10;;;;;;;12.13;73.52;101651.91;5028899;28;20050;-90
2021/06/09 04:20:32;;;;;;;0.20;0.20;;;;;;;12.02;72.90;101639.31;5022580;28;20145;-89
2021/06/09 04:23:14;;;;;;;0.17;0.17;;;;;;;11.92;74.98;101626.44;5037372;28;20046;-91
2021/06/09 04:25:49;;;;;;;;;;;;;;;12.04;76.12;101651.63;5025040;28;20533;-90
2021/06/09 04:28:20;;;;;;;0.20;0.20;;;;;;;12.04;75.52;101645.31;5020351;28;19921;-90
2021/06/09 04:31:20;;;;;;;0.10;0.10;;;;;;;12.07;75.94;101645.63;5014033;28;20053;-90
2021/06/09 04:34:13;;;;;;;0.13;0.13;;;;;;;12.15;76.32;101647.03;5017055;28;20053;-90
2021/06/09 04:36:52;;;;;;;0.10;0.10;;;;;;;12.17;76.91;101646.75;5025384;28;20060;-90
2021/06/09 04:44:05;;;;;;;0.20;0.20;;;;;;;12.42;77.52;101655.03;5023111;28;20505;-90
2021/06/09 04:50:42;;;;;;;0.10;0.10;;;;;;;12.69;78.40;101661.38;5019834;28;20398;-91
2021/06/09 04:53:22;;;;;;;0.10;0.10;;;;;;;12.88;77.41;101656.22;5015314;28;20727;-90
2021/06/09 04:55:51;;;;;;;0.17;0.17;;;;;;;12.95;75.61;101654.03;5024989;28;20050;-91
2021/06/09 04:58:26;;;;;;;0.17;0.17;;;;;;;13.03;74.90;101655.41;5024703;28;20054;-91
2021/06/09 05:00:59;;;;;;;0.10;0.10;;;;;;;13.08;77.99;101658.16;5031101;28;20050;-90
2021/06/09 05:03:27;;;;;;;0.10;0.10;;;;;;;13.28;74.86;101643.66;5031273;28;20409;-91
2021/06/09 05:05:55;;;;;;;0.28;0.20;;;;;;;13.15;74.42;101597.75;5023479;28;20042;-90
2021/06/09 05:09:09;;;;;;;0.20;0.20;;;;;;;14.50;72.03;101650.97;5018238;28;20042;-92
2021/06/09 05:12:27;;;;;;;0.10;0.10;;;;;;;17.39;64.52;101649.34;5033814;28;20423;-91
2021/06/09 05:15:03;;;;;;;0.20;0.20;;;;;;;18.94;59.40;101630.44;5041106;28;20045;-91
2021/06/09 05:18:14;;;;;;;0.20;0.20;;;;;;;20.83;53.11;101627.38;5031401;28;20052;-91
2021/06/09 05:20:50;;;;;;;0.20;0.20;;;;;;;21.99;50.23;101625.53;5019255;28;20053;-88
2021/06/09 05:23:24;;;;;;;0.20;0.20;;;;;;;22.80;46.59;101619.91;5012946;28;20057;-89
2021/06/09 05:25:54;;;;;;;0.20;0.20;;;;;;;23.36;45.23;101610.38;5026052;28;20054;-89
2021/06/09 05:28:26;;;;;;;0.10;0.10;;;;;;;24.21;42.33;101611.53;5013056;28;20050;-91
2021/06/09 05:30:57;;;;;;;0.20;0.20;;;;;;;24.28;40.69;101575.59;5011778;28;20063;-89
2021/06/09 05:33:27;;;;;;;0.20;0.20;;;;;;;24.76;40.95;101600.84;5011805;28;20050;-89
2021/06/09 05:35:57;;;;;;;0.20;0.20;;;;;;;25.39;37.49;101604.09;5024764;28;20042;-91
2021/06/09 05:38:28;;;;;;;0.10;0.10;;;;;;;25.52;37.21;101605.63;5011950;28;20492;-90
2021/06/09 05:41:25;;;;;;;0.10;0.10;;;;;;;25.18;39.05;101616.28;5027149;28;20053;-91
2021/06/09 05:43:58;;;;;;;0.10;0.10;;;;;;;24.18;41.06;101609.47;5012920;28;20057;-90
2021/06/09 05:46:36;;;;;;;0.10;0.10;;;;;;;23.08;42.47;101608.22;5012480;28;20053;-89
2021/06/09 05:49:23;;;;;;;0.10;0.10;;;;;;;22.59;40.63;101604.09;5023760;28;20057;-90
2021/06/09 05:51:55;;;;;;;;;;;;;;;21.97;42.09;101611.22;5011882;28;20058;-92
2021/06/09 05:54:33;;;;;;;0.10;0.10;;;;;;;21.68;47.21;101615.59;5015771;28;19928;-91
2021/06/09 05:57:02;;;;;;;0.10;0.10;;;;;;;20.89;49.83;101620.50;5015260;28;20315;-91
2021/06/09 05:59:30;;;;;;;0.10;0.10;;;;;;;21.84;43.42;101598.41;5029481;28;20763;-92
2021/06/09 06:02:08;;;;;;;0.00;0.00;;;;;;;20.66;45.75;101623.44;5015142;28;20065;-93
2021/06/09 06:04:42;;;;;;;0.10;0.10;;;;;;;20.11;47.23;101613.00;5025657;28;20411;-91
2021/06/09 06:07:39;;;;;;;0.13;0.13;;;;;;;20.01;51.46;101642.53;5015065;28;20050;-92
2021/06/09 06:10:22;;;;;;;0.10;0.10;;;;;;;19.62;50.51;101613.75;5015998;28;20046;-92
2021/06/09 06:13:00;;;;;;;0.10;0.10;;;;;;;19.36;52.63;101619.16;5016264;28;20049;-89
2021/06/09 06:15:47;;;;;;;0.63;0.20;;;;;;;19.06;51.78;101615.25;5027479;28;20040;-91
2021/06/09 06:18:50;;;;;;;0.10;0.10;;;;;;;18.88;55.45;101619.84;5035448;28;20068;-93
2021/06/09 06:21:21;;;;;;;0.10;0.10;;;;;;;18.95;54.30;101621.06;5014927;28;20069;-91
2021/06/09 06:23:49;;;;;;;0.10;0.10;;;;;;;18.65;57.52;101598.56;5022346;28;20517;-93
2021/06/09 06:26:20;;;;;;;0.10;0.10;;;;;;;18.50;59.13;101613.53;5024530;28;20659;-93
2021/06/09 06:29:17;;;;;;;0.10;0.10;;;;;;;18.52;58.52;101616.78;5028015;28;20045;-90
2021/06/09 06:31:51;;;;;;;0.10;0.10;;;;;;;18.40;56.49;101580.69;5029969;28;20053;-92
2021/06/09 06:34:32;;;;;;;0.10;0.10;;;;;;;18.22;57.07;101576.16;5040153;28;20986;-91
2021/06/09 06:37:21;;;;;;;0.10;0.10;;;;;;;18.73;55.98;101607.25;5029625;28;20525;-92
2021/06/09 06:39:59;;;;;;;0.57;0.10;;;;;;;18.74;58.16;101625.41;5017240;28;20065;-90
2021/06/09 06:42:35;;;;;;;0.10;0.10;;;;;;;18.59;59.17;101627.41;5027281;28;20058;-92
2021/06/09 06:48:56;;;;;;;0.10;0.10;;;;;;;18.73;54.98;101618.28;5027714;28;20588;-89
2021/06/09 06:51:32;;;;;;;0.17;0.17;;;;;;;18.75;58.04;101627.03;5020838;28;20054;-90
2021/06/09 06:54:12;;;;;;;0.10;0.10;;;;;;;18.76;53.83;101595.56;5026436;28;20057;-90
2021/06/09 06:56:46;;;;;;;0.10;0.10;;;;;;;18.97;55.88;101617.97;5020358;28;20056;-87
2021/06/09 06:59:47;;;;;;;0.43;0.15;;;;;;;18.86;57.30;101614.63;5037704;28;20045;-90
2021/06/09 07:02:30;;;;;;;0.10;0.10;;;;;;;19.01;57.63;101619.78;5025185;28;20057;-89
2021/06/09 07:05:09;;;;;;;0.10;0.10;;;;;;;18.76;58.45;101606.59;5028665;28;20072;-90
2021/06/09 07:07:44;;;;;;;0.10;0.10;;;;;;;19.10;53.88;101617.09;5009248;28;20068;-87
2021/06/09 07:10:15;;;;;;;0.10;0.10;;;;;;;19.19;54.60;101609.66;5025241;28;20088;-89
2021/06/09 07:12:49;;;;;;;;;;;;;;;19.25;55.58;101624.16;5025499;28;20060;-90
2021/06/09 07:15:19;;;;;;;0.10;0.10;;;;;;;19.46;55.14;101629.13;5027265;28;19928;-88
2021/06/09 07:17:59;;;;;;;0.10;0.10;;;;;;;19.50;53.46;101608.03;5026233;28;20053;-91
2021/06/09 07:20:34;;;;;;;0.10;0.10;;;;;;;19.57;55.06;101627.75;5029361;28;20072;-89
2021/06/09 07:23:12;;;;;;;0.10;0.10;;;;;;;19.46;53.36;101618.91;5019354;28;20052;-90
2021/06/09 07:26:06;;;;;;;0.10;0.10;;;;;;;19.57;55.07;101621.38;5021656;28;20055;-90
2021/06/09 07:28:44;;;;;;;0.10;0.10;;;;;;;19.69;52.60;101624.34;5033965;28;20072;-90
2021/06/09 07:31:26;;;;;;;0.10;0.10;;;;;;;19.69;55.06;101616.91;5020949;28;20818;-90
2021/06/09 07:34:06;;;;;;;0.10;0.10;;;;;;;19.86;53.00;101618.94;5022106;28;20056;-91
2021/06/09 07:36:43;;;;;;;0.10;0.10;;;;;;;19.84;54.46;101607.38;5026924;28;20057;-88
2021/06/09 07:39:26;;;;;;;0.20;0.20;;;;;;;19.86;54.07;101618.13;5021808;28;20050;-90
2021/06/09 07:42:44;;;;;;;0.17;0.17;;;;;;;19.98;55.43;101610.03;5025663;28;20611;-89
2021/06/09 07:45:24;;;;;;;0.10;0.10;;;;;;;20.18;52.44;101605.03;5020750;28;20069;-91
2021/06/09 07:47:58;;;;;;;0.10;0.10;;;;;;;20.34;52.04;101616.41;5023460;28;20054;-90
2021/06/09 07:54:38;;;;;;;0.13;0.13;;;;;;;20.39;53.64;101607.97;5017677;28;20147;-92
2021/06/09 07:57:08;;;;;;;0.10;0.10;;;;;;;20.48;51.51;101606.03;5020633;28;20053;-90
2021/06/09 07:59:50;;;;;;;0.10;0.10;;;;;;;20.43;55.09;101594.31;5027095;28;20800;-90
2021/06/09 08:02:39;;;;;;;0.08;0.08;;;;;;;20.42;51.87;101578.88;5024743;28;20063;-93
2021/06/09 08:05:14;;;;;;;0.10;0.10;;;;;;;20.66;56.36;101598.53;5018801;28;20061;-90
2021/06/09 08:07:47;;;;;;;0.10;0.10;;;;;;;20.78;54.30;101602.63;4996588;28;20057;-89
2021/06/09 08:10:23;;;;;;;0.10;0.10;;;;;;;20.86;53.05;101602.63;5025023;28;20064;-90
2021/06/09 08:12:56;;;;;;;0.10;0.10;;;;;;;20.86;52.90;101599.84;5016170;28;20068;-88
2021/06/09 08:15:32;;;;;;;0.10;0.10;;;;;;;20.99;52.90;101597.22;5018968;28;20067;-91
2021/06/09 08:18:13;;;;;;;0.10;0.10;;;;;;;20.90;50.02;101600.00;5024454;28;20052;-89
2021/06/09 08:21:04;;;;;;;0.10;0.10;;;;;;;21.26;51.52;101601.56;5024430;28;20055;-88
2021/06/09 08:23:46;;;;;;;0.10;0.10;;;;;;;21.15;53.17;101612.16;5026796;28;20052;-90
2021/06/09 08:26:24;;;;;;;0.10;0.10;;;;;;;21.28;48.52;101604.00;5018816;28;20051;-90
2021/06/09 08:28:54;;;;;;;0.00;0.00;;;;;;;21.22;48.50;101600.59;5029280;28;20061;-90
2021/06/09 08:31:53;;;;;;;0.20;0.10;;;;;;;21.38;52.69;101606.41;5021377;28;20509;-89
2021/06/09 08:34:39;;;;;;;0.10;0.10;;;;;;;21.44;48.25;101590.44;5028412;28;20054;-90
2021/06/09 08:37:16;;;;;;;0.10;0.10;;;;;;;21.45;47.35;101603.09;5021360;28;20053;-90
2021/06/09 08:39:51;;;;;;;0.10;0.10;;;;;;;21.57;49.79;101601.31;5026543;28;20048;-89
2021/06/09 08:42:25;;;;;;;0.10;0.10;;;;;;;21.48;48.63;101602.47;5022458;28;20049;-90
2021/06/09 08:45:04;;;;;;;0.10;0.10;;;;;;;21.51;47.42;101601.78;5025584;28;21521;-89
2021/06/09 08:47:41;;;;;;;0.10;0.10;;;;;;;21.33;42.05;101603.81;5020057;28;20054;-88
2021/06/09 08:50:16;;;;;;;0.10;0.10;;;;;;;21.42;42.34;101604.59;5017978;28;20706;-90
2021/06/09 08:53:20;;;;;;;0.10;0.10;;;;;;;21.67;47.57;101602.09;5019968;28;20064;-90
2021/06/09 08:56:06;;;;;;;0.10;0.10;;;;;;;21.55;45.05;101597.25;5018473;28;20408;-90
2021/06/09 08:58:36;;;;;;;0.10;0.10;;;;;;;21.78;48.67;101589.47;5017056;28;20060;-90
2021/06/09 09:01:12;;;;;;;0.10;0.10;;;;;;;21.65;46.74;101560.84;5016005;28;20052;-88
2021/06/09 09:03:50;;;;;;;0.10;0.10;;;;;;;21.64;42.39;101592.50;5018729;28;20057;-89
2021/06/09 09:06:24;;;;;;;0.40;0.13;;;;;;;21.90;42.79;101599.81;4994653;28;20049;-89
2021/06/09 09:09:04;;;;;;;0.10;0.10;;;;;;;22.27;44.77;101590.97;5017243;28;20044;-90
2021/06/09 09:11:33;;;;;;;0.22;0.10;;;;;;;22.14;43.45;101593.66;5021570;28;20057;-91
2021/06/09 09:14:17;;;;;;;0.10;0.10;;;;;;;22.44;46.09;101592.81;5024429;28;20979;-89
2021/06/09 09:17:09;;;;;;;0.10;0.10;;;;;;;22.18;44.41;101588.22;5022216;28;20064;-90
2021/06/09 09:19:45;;;;;;;0.10;0.10;;;;;;;22.26;43.48;101592.91;5022695;28;20702;-91
2021/06/09 09:22:21;;;;;;;0.10;0.10;;;;;;;22.39;47.67;101594.63;5017978;28;20060;-90
2021/06/09 09:24:55;;;;;;;0.10;0.10;;;;;;;22.43;48.16;101578.13;5018003;28;20056;-88
2021/06/09 09:27:29;;;;;;;0.10;0.10;;;;;;;22.49;45.82;101554.56;5022003;28;20068;-89
2021/06/09 09:30:07;;;;;;;0.10;0.10;;;;;;;22.46;43.29;101598.84;5028646;28;20045;-88
2021/06/09 09:32:58;;;;;;;0.10;0.10;;;;;;;22.58;43.08;101596.94;5029620;28;20056;-89
2021/06/09 09:35:33;;;;;;;0.10;0.10;;;;;;;22.50;41.83;101599.78;5026065;28;20049;-89
2021/06/09 09:38:27;;;;;;;0.10;0.10;;;;;;;22.46;41.54;101605.19;5048692;28;20061;-89
2021/06/09 09:41:07;;;;;;;0.10;0.10;;;;;;;22.61;41.67;101603.75;5028917;28;20050;-90
2021/06/09 09:43:55;;;;;;;0.10;0.10;;;;;;;22.80;46.31;101610.75;5027791;28;20046;-91
2021/06/09 09:46:33;;;;;;;0.10;0.10;;;;;;;22.50;42.22;101602.56;5030008;28;20059;-89
2021/06/09 09:49:05;;;;;;;0.10;0.10;;;;;;;22.34;43.08;101594.03;5035793;28;20048;-89
2021/06/09 09:52:03;;;;;;;0.10;0.10;;;;;;;22.54;47.76;101607.06;5024947;28;20065;-90
2021/06/09 09:54:34;;;;;;;0.10;0.10;;;;;;;22.57;42.21;101598.06;5025882;28;20065;-89
2021/06/09 09:57:38;;;;;;;0.10;0.10;;;;;;;22.49;42.61;101612.81;5028940;28;20053;-88
2021/06/09 10:00:30;;;;;;;0.17;0.10;;;;;;;22.58;46.60;101596.94;5027364;28;20045;-90
2021/06/09 10:03:18;;;;;;;0.10;0.10;;;;;;;22.49;48.01;101600.94;5024014;28;20056;-89
2021/06/09 10:05:45;;;;;;;0.10;0.10;;;;;;;22.65;45.47;101601.09;5023607;28;20061;-91
2021/06/09 10:08:26;;;;;;;0.10;0.10;;;;;;;22.61;49.58;101594.59;5001419;28;21520;-89
2021/06/09 10:11:10;;;;;;;0.20;0.10;;;;;;;22.80;49.65;101608.81;5036787;28;20524;-88
2021/06/09 10:13:47;;;;;;;0.10;0.10;;;;;;;22.89;45.90;101594.84;5047568;28;20049;-90
2021/06/09 10:16:30;;;;;;;0.10;0.10;;;;;;;22.95;44.09;101593.47;5048586;28;20064;-87
2021/06/09 10:19:11;;;;;;;0.10;0.10;;;;;;;22.96;42.04;101589.53;5047277;28;20052;-89
2021/06/09 10:21:51;;;;;;;0.10;0.10;;;;;;;23.14;47.55;101581.06;5047822;28;20056;-90
2021/06/09 10:24:26;;;;;;;0.10;0.10;;;;;;;23.39;45.39;101588.28;5051537;28;20064;-89
2021/06/09 10:27:06;;;;;;;0.25;0.10;;;;;;;23.22;41.72;101550.41;5046271;28;20045;-90
2021/06/09 10:29:39;;;;;;;0.10;0.10;;;;;;;23.69;45.03;101587.25;5047724;28;20053;-89
2021/06/09 10:32:16;;;;;;;0.10;0.10;;;;;;;23.63;44.33;101586.69;5044479;28;20056;-91
2021/06/09 10:34:54;;;;;;;0.10;0.10;;;;;;;23.79;41.75;101584.00;5044339;28;20057;-91
2021/06/09 10:37:31;;;;;;;0.20;0.20;;;;;;;23.82;41.85;101583.28;5050011;28;20070;-88
2021/06/09 10:40:06;;;;;;;0.10;0.10;;;;;;;23.86;45.04;101578.66;5042794;28;20061;-91
2021/06/09 10:42:37;;;;;;;0.03;0.03;;;;;;;23.94;45.43;101582.50;5031252;28;20072;-88
2021/06/09 10:45:12;;;;;;;0.10;0.10;;;;;;;23.87;44.32;101579.47;5042478;28;20057;-90
2021/06/09 10:47:41;;;;;;;0.10;0.10;;;;;;;23.90;41.90;101573.25;5048814;28;20053;-90
2021/06/09 10:50:21;;;;;;;0.10;0.10;;;;;;;24.05;43.43;101577.28;5042434;28;20060;-91
2021/06/09 10:52:52;;;;;;;0.10;0.10;;;;;;;24.25;44.03;101564.34;5041008;28;20060;-89
2021/06/09 10:55:50;;;;;;;0.13;0.10;;;;;;;24.37;44.54;101560.72;5042730;28;20529;-91
2021/06/09 10:58:18;;;;;;;0.10;0.10;;;;;;;24.58;45.71;101558.56;5042048;28;20868;-89
2021/06/09 11:00:55;;;;;;;0.10;0.10;;;;;;;24.26;40.85;101558.47;5044073;28;20045;-88
2021/06/09 11:03:34;;;;;;;0.10;0.10;;;;;;;24.27;44.60;101553.69;5046459;28;20496;-89
2021/06/09 11:06:14;;;;;;;0.20;0.20;;;;;;;24.47;41.93;101559.41;5018909;28;20044;-89
2021/06/09 11:08:42;;;;;;;0.20;0.10;;;;;;;24.44;40.92;101547.03;5041179;28;20059;-90
2021/06/09 11:11:18;;;;;;;0.10;0.10;;;;;;;24.67;43.57;101544.50;5042202;28;20785;-91
2021/06/09 11:13:51;;;;;;;0.10;0.10;;;;;;;24.32;41.05;101552.63;5044238;28;20052;-90
2021/06/09 11:16:26;;;;;;;0.10;0.10;;;;;;;24.10;41.44;101554.78;5039631;28;20065;-88
2021/06/09 11:19:00;;;;;;;0.10;0.10;;;;;;;24.42;42.39;101549.34;5041591;28;20056;-90
2021/06/09 11:21:37;;;;;;;0.10;0.10;;;;;;;24.48;41.25;101547.94;5040902;28;20057;-91
2021/06/09 11:24:16;;;;;;;0.10;0.10;;;;;;;24.53;39.97;101544.91;5044923;28;20055;-88
2021/06/09 11:26:49;;;;;;;0.10;0.10;;;;;;;24.35;37.92;101549.16;5046383;28;20059;-89
2021/06/09 11:29:31;;;;;;;0.10;0.10;;;;;;;24.68;40.55;101535.00;5045871;28;20057;-90
2021/06/09 11:32:18;;;;;;;0.10;0.10;;;;;;;25.05;41.96;101543.16;5043166;28;20064;-90
2021/06/09 11:35:01;;;;;;;0.10;0.10;;;;;;;24.55;37.85;101534.22;5047630;28;20048;-90
2021/06/09 11:38:10;;;;;;;0.10;0.10;;;;;;;23.92;40.80;101535.59;5046373;28;20060;-89
2021/06/09 11:40:59;;;;;;;0.10;0.10;;;;;;;23.87;40.23;101540.56;5045925;28;20059;-88
2021/06/09 11:43:29;;;;;;;0.10;0.10;;;;;;;23.71;39.75;101532.94;5039376;28;20075;-89
2021/06/09 11:46:01;;;;;;;0.10;0.10;;;;;;;24.06;42.84;101534.41;5043546;28;20052;-89
2021/06/09 11:48:35;;;;;;;0.10;0.10;;;;;;;24.06;42.91;101535.22;5042800;28;20436;-89
2021/06/09 11:51:32;;;;;;;0.10;0.10;;;;;;;24.39;43.52;101530.59;5042689;28;20056;-91
2021/06/09 11:54:31;;;;;;;0.47;0.20;;;;;;;24.69;44.46;101531.06;5045751;28;20625;-91
2021/06/09 11:57:13;;;;;;;0.15;0.10;;;;;;;24.61;38.19;101516.13;5039066;28;20538;-89
2021/06/09 11:59:49;;;;;;;0.10;0.10;;;;;;;24.82;41.14;101520.66;5040755;28;20641;-90
2021/06/09 12:02:25;;;;;;;0.10;0.10;;;;;;;24.78;43.36;101516.97;5039398;28;20519;-90
2021/06/09 12:04:56;;;;;;;0.20;0.20;;;;;;;24.51;38.80;101522.16;5037579;28;20048;-90
2021/06/09 12:07:31;;;;;;;0.10;0.10;;;;;;;24.31;44.08;101512.09;5013707;28;20048;-89
2021/06/09 12:10:04;;;;;;;0.10;0.10;;;;;;;24.26;40.61;101525.09;5041864;28;20044;-90
2021/06/09 12:12:37;;;;;;;0.10;0.10;;;;;;;24.09;39.87;101503.13;5044459;28;20120;-88
2021/06/09 12:15:12;;;;;;;0.10;0.10;;;;;;;24.63;43.21;101503.84;5039775;28;20831;-90
2021/06/09 12:17:45;;;;;;;0.10;0.10;;;;;;;25.02;42.95;101523.53;5043380;28;20444;-90
2021/06/09 12:20:20;;;;;;;0.10;0.10;;;;;;;25.40;40.68;101505.41;5040469;28;20069;-92
2021/06/09 12:22:57;;;;;;;0.10;0.10;;;;;;;25.01;42.73;101494.91;5044264;28;20044;-90
2021/06/09 12:25:31;;;;;;;0.10;0.10;;;;;;;25.22;39.27;101483.47;5045469;28;20060;-89
2021/06/09 12:28:03;;;;;;;0.10;0.10;;;;;;;25.09;40.53;101502.28;5048825;28;20063;-91
2021/06/09 12:30:35;;;;;;;0.10;0.10;;;;;;;25.11;38.49;101497.13;5040553;28;20060;-88
2021/06/09 12:33:15;;;;;;;0.10;0.10;;;;;;;25.23;40.70;101496.25;5042188;28;20059;-90
2021/06/09 12:35:43;;;;;;;0.10;0.10;;;;;;;25.34;41.81;101501.28;5062499;28;20107;-88
2021/06/09 12:38:27;;;;;;;0.10;0.10;;;;;;;25.23;38.99;101487.06;5041720;28;20064;-90
2021/06/09 12:41:01;;;;;;;0.10;0.10;;;;;;;25.23;43.53;101481.47;5037919;28;20403;-91
2021/06/09 12:43:32;;;;;;;0.13;0.13;;;;;;;25.47;42.51;101494.44;5045009;28;20366;-91
2021/06/09 12:46:05;;;;;;;0.10;0.10;;;;;;;25.35;42.40;101497.31;5042062;28;20067;-91
2021/06/09 12:48:38;;;;;;;0.10;0.10;;;;;;;25.44;42.97;101481.22;5043590;28;20056;-90
2021/06/09 12:51:09;;;;;;;0.10;0.10;;;;;;;25.10;42.09;101487.16;5041912;28;20781;-89
2021/06/09 12:53:46;;;;;;;0.00;0.00;;;;;;;24.96;39.34;101476.47;5044456;28;20424;-90
2021/06/09 12:56:21;;;;;;;0.30;0.10;;;;;;;24.86;38.05;101478.97;5043685;28;20064;-89
2021/06/09 12:58:59;;;;;;;0.10;0.10;;;;;;;24.88;40.54;101476.66;5039565;28;20049;-90
2021/06/09 13:01:32;;;;;;;0.10;0.10;;;;;;;25.38;41.81;101480.72;5047533;28;20057;-91
2021/06/09 13:04:07;;;;;;;0.10;0.10;;;;;;;24.69;40.39;101480.16;5050419;28;20052;-90
2021/06/09 13:06:49;;;;;;;0.10;0.10;;;;;;;24.25;39.11;101481.75;5028555;28;21327;-88
2021/06/09 13:09:22;;;;;;;0.10;0.10;;;;;;;23.91;39.19;101472.81;5048707;28;20060;-89
2021/06/09 13:12:15;;;;;;;0.10;0.10;;;;;;;24.04;40.12;101484.72;5041178;28;20071;-89
2021/06/09 13:14:44;;;;;;;0.10;0.10;;;;;;;24.16;40.86;101472.72;5047753;28;20076;-90
2021/06/09 13:17:12;;;;;;;0.10;0.10;;;;;;;24.09;40.66;101470.56;5042594;28;20057;-88
2021/06/09 13:20:04;;;;;;;0.10;0.10;;;;;;;24.24;45.17;101482.91;5043241;28;20068;-90
2021/06/09 13:22:44;;;;;;;0.10;0.10;;;;;;;24.45;41.81;101462.41;5041862;28;20060;-89
2021/06/09 13:25:13;;;;;;;0.10;0.10;;;;;;;24.81;39.37;101468.94;5044965;28;20053;-90
2021/06/09 13:27:54;;;;;;;0.10;0.10;;;;;;;24.53;41.54;101460.63;5037600;28;20726;-91
2021/06/09 13:30:34;;;;;;;0.35;0.20;;;;;;;24.96;42.87;101465.34;5053407;28;20111;-92